Impacts TAF Board INFO
FOR SITUATIONAL AWARENESS. NOT TO BE USED FOR FLIGHT PLANNING PURPOSES.
IDs:

KDCA - Washington/National, VA, US

Issued at 0859 UTC 24 Apr 2017
Updated at 0922 UTC 24 Apr 2017
Potential Impact None Slight Moderate High
Time0852Z 24/10Z 24/11Z 24/12Z 24/13Z 24/14Z 24/15Z 24/16Z 24/17Z 24/18Z 24/19Z 24/20Z 24/21Z 24/22Z>>
Type OBS PRVL PRVL PRVL PRVL PRVL PRVL PRVL PRVL PRVL PRVL PRVL PRVL PRVL
VIS 10 6 6 6 6 6 6 6 6 6 6 6 6 5
CIG 75 50 50 50 50 50 50 50 50 50 50 50 50 15
Cover OVC OVC OVC OVC OVC OVC OVC OVC OVC OVC OVC OVC OVC OVC
FltCat VFR VFR VFR VFR VFR VFR VFR VFR VFR VFR VFR VFR VFR MVFR
WX -- -RA -RA -RA -RA -RA -RA -RA -RA -RA -RA -RA -RA -RA
WDir 70 60 60 50 50 50 50 50 50 50 50 50 50 50
WSpd 7 8 8 12 12 12 12 12 12 12 12 12 12 12
WGst -- -- -- 20 20 20 20 20 20 20 20 20 20 20

Raw TAF
KDCA 240859Z 2409/2506 06008KT 6SM -RA SCT025 OVC050
  FM241200 05012G20KT 6SM -RA SCT025 OVC050
  FM242200 05012G20KT 5SM -RA BKN015 OVC025
  FM250100 04010G18KT 3SM -RA BR BKN008 OVC015


Raw METAR
KDCA 240852Z 07007KT 10SM OVC075 13/07 A3007 RMK AO2 RAE0759 SLP181 P0000 60000 T01280067 56008
KDCA 240752Z 07005KT 10SM -RA BKN065 OVC080 13/07 A3007 RMK AO2 RAE15B39 SLP183 P0000 T01280072
KDCA 240652Z 07005KT 10SM -RA OVC090 13/09 A3007 RMK AO2 SLP184 P0000 T01280089

METAR Board
Radar Display
Forecast Discussion

FOR SITUATIONAL AWARENESS. NOT TO BE USED FOR FLIGHT PLANNING PURPOSES.

Page loaded:  09:22 UTC  |   02:22 AM Pacific  |   03:22 AM Mountain  |   04:22 AM Central  |   05:22 AM Eastern

 

ADVISORIES

FORECASTS

FORECASTS

OBSERVATIONS

USER TOOLS

ABOUT US